createdAt,value
2022-11-25T00:01:16.474Z,74.50
2022-11-25T00:03:44.881Z,74.50
2022-11-25T00:06:13.120Z,74.60
2022-11-25T00:08:41.798Z,74.40
2022-11-25T00:11:09.439Z,74.60
2022-11-25T00:13:37.050Z,74.60
2022-11-25T00:16:10.093Z,74.40
2022-11-25T00:18:37.692Z,74.50
2022-11-25T00:21:09.568Z,74.50
2022-11-25T00:23:37.450Z,74.30
2022-11-25T00:26:08.404Z,74.30
2022-11-25T00:28:35.657Z,74.40
2022-11-25T00:31:23.422Z,74.40
2022-11-25T00:33:51.364Z,74.30
2022-11-25T00:36:22.320Z,74.20
2022-11-25T00:39:12.271Z,74.50
2022-11-25T00:41:58.030Z,74.70
2022-11-25T00:44:38.589Z,74.80
2022-11-25T00:47:12.856Z,74.80
2022-11-25T00:49:42.411Z,75.00
2022-11-25T00:52:13.615Z,75.10
2022-11-25T00:54:40.621Z,75.20
2022-11-25T00:57:07.533Z,75.40
2022-11-25T00:59:34.627Z,75.30
2022-11-25T01:02:01.615Z,75.20
2022-11-25T01:04:28.646Z,75.10
2022-11-25T01:06:56.888Z,75.00
2022-11-25T01:09:23.783Z,75.20
2022-11-25T01:11:51.455Z,75.90
2022-11-25T01:14:19.280Z,75.70
2022-11-25T01:16:46.196Z,75.60
2022-11-25T01:19:13.641Z,75.60
2022-11-25T01:21:40.796Z,75.60
2022-11-25T01:24:08.227Z,75.60
2022-11-25T01:26:36.026Z,75.60
2022-11-25T01:29:05.649Z,75.80
2022-11-25T01:31:35.251Z,75.70
2022-11-25T01:34:23.309Z,75.70
2022-11-25T01:36:50.285Z,75.70
2022-11-25T01:39:19.668Z,75.70
2022-11-25T01:41:47.692Z,75.80
2022-11-25T01:44:20.227Z,75.90
2022-11-25T01:47:08.996Z,75.90
2022-11-25T01:49:39.118Z,75.90
2022-11-25T01:52:15.147Z,75.80
2022-11-25T01:54:50.936Z,76.00
2022-11-25T01:57:26.355Z,76.20
2022-11-25T01:59:57.873Z,76.20
2022-11-25T02:02:25.603Z,76.00
2022-11-25T02:04:52.892Z,75.80
2022-11-25T02:07:32.180Z,75.80
2022-11-25T02:10:01.842Z,75.80
2022-11-25T02:12:30.113Z,75.60
2022-11-25T02:14:58.638Z,75.40
2022-11-25T02:17:25.709Z,75.20
2022-11-25T02:20:08.824Z,75.00
2022-11-25T02:22:49.676Z,75.10
2022-11-25T02:25:38.359Z,75.10
2022-11-25T02:28:06.160Z,75.10
2022-11-25T02:30:34.388Z,75.00
2022-11-25T02:33:01.412Z,75.10
2022-11-25T02:35:37.252Z,75.10
2022-11-25T02:38:06.215Z,75.30
2022-11-25T02:40:37.447Z,75.30
2022-11-25T02:43:04.330Z,75.50
2022-11-25T02:45:51.852Z,75.40
2022-11-25T02:48:19.503Z,75.60
2022-11-25T02:50:46.532Z,75.40
2022-11-25T02:53:13.482Z,75.30
2022-11-25T02:55:40.485Z,75.40
2022-11-25T02:58:07.548Z,75.40
2022-11-25T03:00:34.751Z,75.50
2022-11-25T03:03:01.675Z,75.40
2022-11-25T03:05:28.781Z,75.40
2022-11-25T03:07:55.789Z,75.40
2022-11-25T03:10:23.117Z,75.40
2022-11-25T03:12:50.163Z,75.30
2022-11-25T03:15:17.600Z,75.20
2022-11-25T03:17:44.975Z,75.10
2022-11-25T03:20:13.146Z,75.10
2022-11-25T03:22:40.026Z,75.10
2022-11-25T03:25:07.078Z,74.90
2022-11-25T03:27:34.476Z,75.00
2022-11-25T03:30:01.381Z,75.00
2022-11-25T03:32:28.233Z,75.00
2022-11-25T03:34:55.005Z,74.90
2022-11-25T03:37:21.904Z,74.90
2022-11-25T03:39:49.203Z,74.80
2022-11-25T03:42:16.090Z,74.80
2022-11-25T03:44:42.924Z,75.60
2022-11-25T03:47:09.963Z,74.80
2022-11-25T03:49:36.864Z,74.70
2022-11-25T03:52:04.070Z,74.60
2022-11-25T03:54:31.014Z,74.60
2022-11-25T03:56:57.754Z,74.60
2022-11-25T03:59:24.566Z,74.50
2022-11-25T04:01:51.385Z,74.50
2022-11-25T04:04:18.317Z,74.50
2022-11-25T04:06:45.104Z,74.50
2022-11-25T04:09:14.759Z,74.50
2022-11-25T04:12:00.448Z,74.60
2022-11-25T04:14:27.512Z,74.60
2022-11-25T04:16:55.719Z,74.50
2022-11-25T04:19:22.695Z,74.50
2022-11-25T04:21:52.594Z,74.60
2022-11-25T04:24:20.497Z,74.60
2022-11-25T04:26:47.242Z,74.50
2022-11-25T04:29:14.458Z,74.60
2022-11-25T04:31:41.339Z,74.60
2022-11-25T04:34:08.181Z,74.60
2022-11-25T04:36:35.015Z,74.70
2022-11-25T04:39:01.899Z,74.90
2022-11-25T04:41:28.690Z,75.00
2022-11-25T04:43:55.424Z,75.30
2022-11-25T04:46:28.032Z,75.70
2022-11-25T04:48:54.887Z,76.10
2022-11-25T04:51:21.875Z,76.30
2022-11-25T04:53:48.622Z,76.60
2022-11-25T04:56:18.694Z,76.50
2022-11-25T04:59:04.861Z,77.40
2022-11-25T05:01:31.757Z,76.80
2022-11-25T05:03:58.690Z,76.80
2022-11-25T05:06:25.498Z,76.80
2022-11-25T05:08:52.267Z,76.80
2022-11-25T05:11:19.139Z,76.80
2022-11-25T05:13:46.024Z,76.70
2022-11-25T05:16:13.173Z,76.80
2022-11-25T05:18:40.213Z,76.80
2022-11-25T05:21:07.587Z,76.70
2022-11-25T05:23:34.489Z,76.50
2022-11-25T05:26:02.621Z,76.90
2022-11-25T05:28:30.339Z,76.70
2022-11-25T05:30:57.530Z,76.50
2022-11-25T05:33:24.521Z,76.50
2022-11-25T05:35:59.670Z,76.50
2022-11-25T05:38:27.342Z,76.50
2022-11-25T05:40:59.980Z,76.40
2022-11-25T05:43:26.815Z,76.30
2022-11-25T05:45:53.730Z,76.20
2022-11-25T05:48:20.504Z,76.10
2022-11-25T05:50:47.303Z,76.00
2022-11-25T05:53:17.462Z,76.10
2022-11-25T05:55:44.560Z,76.10
2022-11-25T05:58:11.355Z,76.00
2022-11-25T06:00:38.102Z,76.10
2022-11-25T06:03:05.055Z,75.90
2022-11-25T06:05:35.383Z,75.90
2022-11-25T06:08:02.195Z,75.80
2022-11-25T06:10:29.040Z,75.70
2022-11-25T06:12:55.846Z,75.70
2022-11-25T06:15:22.736Z,75.80
2022-11-25T06:17:49.603Z,75.70
2022-11-25T06:20:16.620Z,75.60
2022-11-25T06:22:43.511Z,75.60
2022-11-25T06:25:10.301Z,75.50
2022-11-25T06:28:04.397Z,75.50
2022-11-25T06:30:24.231Z,75.40
2022-11-25T06:32:51.404Z,75.50
2022-11-25T06:35:18.302Z,75.40
2022-11-25T06:37:45.172Z,75.30
2022-11-25T06:40:12.281Z,75.30
2022-11-25T06:42:39.593Z,75.30
2022-11-25T06:45:07.262Z,75.30
2022-11-25T06:47:34.040Z,75.40
2022-11-25T06:50:03.559Z,75.50
2022-11-25T06:52:31.626Z,75.60
2022-11-25T06:54:58.463Z,75.60
2022-11-25T06:57:25.646Z,75.60
2022-11-25T06:59:52.667Z,75.60
2022-11-25T07:02:19.533Z,75.50
2022-11-25T07:04:46.356Z,75.60
2022-11-25T07:07:13.305Z,75.60
2022-11-25T07:09:40.125Z,76.40
2022-11-25T07:12:07.313Z,75.70
2022-11-25T07:14:34.831Z,75.80
2022-11-25T07:17:02.951Z,76.10
2022-11-25T07:19:35.424Z,76.10
2022-11-25T07:22:02.765Z,76.20
2022-11-25T07:24:29.714Z,76.20
2022-11-25T07:26:56.627Z,76.10
2022-11-25T07:32:11.669Z,76.00
2022-11-25T07:34:38.768Z,75.90
2022-11-25T07:37:05.564Z,75.80
2022-11-25T07:39:32.448Z,75.80
2022-11-25T07:41:59.225Z,75.50
2022-11-25T07:44:26.018Z,75.60
2022-11-25T07:46:52.888Z,75.60
2022-11-25T07:49:26.553Z,75.60
2022-11-25T07:51:57.595Z,75.70
2022-11-25T07:54:24.968Z,75.60
2022-11-25T07:56:52.214Z,75.80
2022-11-25T07:59:21.542Z,75.80
2022-11-25T08:01:52.993Z,76.00
2022-11-25T08:04:21.239Z,76.00
2022-11-25T08:06:51.035Z,75.90
2022-11-25T08:09:20.237Z,75.90
2022-11-25T08:11:47.799Z,76.00
2022-11-25T08:14:15.583Z,75.90
2022-11-25T08:16:43.069Z,76.00
2022-11-25T08:19:14.214Z,75.90
2022-11-25T08:21:41.584Z,76.00
2022-11-25T08:24:10.033Z,75.90
2022-11-25T08:26:37.676Z,75.90
2022-11-25T08:29:07.454Z,75.80
2022-11-25T08:31:37.513Z,75.80
2022-11-25T08:34:06.688Z,75.80
2022-11-25T08:36:34.702Z,75.80
2022-11-25T08:39:22.581Z,75.80
2022-11-25T08:41:53.600Z,75.90
2022-11-25T08:44:20.451Z,75.70
2022-11-25T08:46:49.699Z,75.80
2022-11-25T08:49:17.487Z,75.80
2022-11-25T08:51:44.595Z,75.80
2022-11-25T08:54:11.521Z,75.90
2022-11-25T08:56:38.341Z,75.80
2022-11-25T08:59:05.383Z,75.90
2022-11-25T09:01:32.515Z,75.90
2022-11-25T09:04:00.208Z,76.00
2022-11-25T09:06:28.323Z,75.90
2022-11-25T09:08:56.766Z,75.70
2022-11-25T09:11:24.547Z,75.70
2022-11-25T09:13:51.650Z,75.60
2022-11-25T09:16:18.523Z,75.70
2022-11-25T09:18:45.750Z,75.50
2022-11-25T09:21:15.221Z,75.60
2022-11-25T09:23:42.120Z,75.50
2022-11-25T09:26:36.619Z,75.40
2022-11-25T09:29:04.708Z,75.40
2022-11-25T09:31:31.671Z,75.40
2022-11-25T09:33:59.035Z,75.30
2022-11-25T09:36:26.035Z,75.30
2022-11-25T09:38:53.128Z,75.30
2022-11-25T09:41:50.512Z,75.30
2022-11-25T09:44:55.386Z,75.30
2022-11-25T09:47:57.299Z,74.90
2022-11-25T09:50:42.521Z,75.00
2022-11-25T09:53:28.256Z,75.00
2022-11-25T09:56:02.037Z,75.00
2022-11-25T09:58:34.742Z,75.00
2022-11-25T10:01:12.185Z,74.90
2022-11-25T10:03:45.008Z,74.90
2022-11-25T10:06:17.633Z,74.80
2022-11-25T10:08:51.518Z,74.50
2022-11-25T10:11:21.760Z,74.40
2022-11-25T10:14:02.435Z,74.30
2022-11-25T10:16:39.314Z,74.30
2022-11-25T10:19:16.946Z,74.20
2022-11-25T10:21:46.328Z,74.20
2022-11-25T10:24:15.411Z,74.20
2022-11-25T10:26:46.447Z,74.20
2022-11-25T10:29:13.198Z,74.10
2022-11-25T10:31:42.742Z,74.10
2022-11-25T10:34:40.678Z,74.10
2022-11-25T10:37:16.377Z,73.90
2022-11-25T10:39:43.168Z,73.90
2022-11-25T10:42:22.384Z,73.50
2022-11-25T10:44:49.197Z,73.40
2022-11-25T10:47:51.817Z,73.60
2022-11-25T10:50:33.604Z,73.40
2022-11-25T10:53:09.368Z,73.20
2022-11-25T10:55:36.377Z,73.30
2022-11-25T10:58:26.797Z,73.20
2022-11-25T11:01:07.041Z,73.10
2022-11-25T11:03:34.652Z,72.80
2022-11-25T11:06:01.625Z,72.70
2022-11-25T11:08:39.795Z,72.60
2022-11-25T11:11:21.667Z,72.50
2022-11-25T11:13:50.688Z,72.30
2022-11-25T11:16:36.892Z,72.90
2022-11-25T11:19:05.434Z,73.10
2022-11-25T11:21:41.873Z,73.00
2022-11-25T11:24:32.284Z,73.00
2022-11-25T11:27:21.311Z,73.00
2022-11-25T11:29:49.100Z,73.20
2022-11-25T11:32:25.601Z,73.30
2022-11-25T11:35:03.531Z,73.20
2022-11-25T11:37:44.340Z,73.20
2022-11-25T11:40:35.483Z,73.20
2022-11-25T11:43:05.177Z,73.40
2022-11-25T11:45:59.565Z,73.30
2022-11-25T11:48:40.146Z,73.20
2022-11-25T11:51:10.107Z,73.10
2022-11-25T11:53:45.510Z,73.00
2022-11-25T11:56:36.171Z,72.80
2022-11-25T11:59:25.581Z,72.70
2022-11-25T12:01:55.311Z,72.90
2022-11-25T12:04:36.430Z,72.90
2022-11-25T12:07:20.600Z,72.90
2022-11-25T12:10:14.788Z,72.50
2022-11-25T12:13:00.435Z,72.80
2022-11-25T12:15:43.334Z,72.60
2022-11-25T12:18:20.569Z,72.70
2022-11-25T12:21:02.998Z,72.50
2022-11-25T12:23:55.924Z,72.50
2022-11-25T12:26:31.185Z,72.20
2022-11-25T12:29:05.296Z,72.60
2022-11-25T12:31:39.748Z,72.70
2022-11-25T12:34:09.718Z,72.60
2022-11-25T12:36:40.047Z,72.70
2022-11-25T12:39:21.808Z,72.70
2022-11-25T12:41:57.717Z,72.70
2022-11-25T12:44:43.411Z,72.70
2022-11-25T12:47:13.262Z,72.50
2022-11-25T12:49:48.977Z,72.70
2022-11-25T12:52:53.577Z,72.80
2022-11-25T12:55:28.020Z,72.60
2022-11-25T12:58:00.542Z,72.70
2022-11-25T13:00:41.587Z,72.60
2022-11-25T13:03:14.065Z,72.80
2022-11-25T13:06:20.326Z,72.80
2022-11-25T13:09:02.129Z,72.80
2022-11-25T13:11:57.379Z,72.80
2022-11-25T13:14:34.230Z,72.60
2022-11-25T13:17:02.037Z,72.90
2022-11-25T13:19:29.280Z,72.80
2022-11-25T13:21:56.032Z,72.80
2022-11-25T13:24:49.519Z,73.00
2022-11-25T13:27:42.363Z,73.10
2022-11-25T13:30:32.019Z,72.90
2022-11-25T13:33:25.475Z,72.90
2022-11-25T13:35:56.678Z,73.10
2022-11-25T13:38:29.667Z,73.00
2022-11-25T13:41:02.911Z,73.00
2022-11-25T13:43:30.064Z,73.10
2022-11-25T13:45:57.078Z,73.00
2022-11-25T13:48:27.286Z,72.90
2022-11-25T13:51:14.072Z,73.00
2022-11-25T13:53:41.287Z,72.80
2022-11-25T13:56:34.120Z,72.80
2022-11-25T13:59:10.241Z,72.80
2022-11-25T14:01:50.441Z,72.90
2022-11-25T14:04:34.751Z,72.80
2022-11-25T14:07:23.856Z,72.80
2022-11-25T14:10:21.360Z,72.70
2022-11-25T14:12:57.907Z,72.60
2022-11-25T14:15:42.680Z,72.80
2022-11-25T14:18:12.981Z,72.80
2022-11-25T14:21:24.509Z,73.00
2022-11-25T14:24:00.507Z,73.00
2022-11-25T14:26:49.701Z,73.00
2022-11-25T14:29:31.427Z,73.00
2022-11-25T14:32:13.198Z,73.00
2022-11-25T14:34:48.038Z,73.00
2022-11-25T14:37:35.056Z,73.00
2022-11-25T14:40:18.431Z,72.90
2022-11-25T14:42:49.867Z,72.90
2022-11-25T14:45:27.609Z,73.00
2022-11-25T14:47:55.353Z,72.90
2022-11-25T14:50:38.627Z,73.00
2022-11-25T14:53:12.060Z,73.10
2022-11-25T14:55:38.937Z,73.00
2022-11-25T14:58:06.208Z,72.90
2022-11-25T15:00:33.043Z,73.00
2022-11-25T15:03:02.489Z,73.10
2022-11-25T15:05:37.525Z,73.10
2022-11-25T15:08:18.046Z,73.10
2022-11-25T15:10:57.164Z,73.10
2022-11-25T15:13:47.792Z,73.10
2022-11-25T15:16:18.015Z,73.10
2022-11-25T15:19:06.157Z,73.10
2022-11-25T15:21:54.167Z,73.20
2022-11-25T15:24:29.972Z,73.20
2022-11-25T15:27:02.774Z,73.20
2022-11-25T15:29:31.321Z,73.20
2022-11-25T15:31:59.904Z,73.30
2022-11-25T15:34:29.599Z,73.20
2022-11-25T15:37:00.495Z,73.30
2022-11-25T15:39:27.865Z,74.10
2022-11-25T15:42:15.579Z,74.10
2022-11-25T15:44:53.531Z,73.50
2022-11-25T15:47:26.659Z,73.20
2022-11-25T15:50:13.658Z,73.30
2022-11-25T15:52:44.654Z,73.40
2022-11-25T15:55:31.994Z,73.30
2022-11-25T15:58:11.444Z,73.40
2022-11-25T16:00:41.587Z,73.40
2022-11-25T16:03:23.075Z,73.50
2022-11-25T16:05:54.886Z,73.60
2022-11-25T16:08:38.102Z,73.50
2022-11-25T16:11:16.041Z,73.60
2022-11-25T16:13:43.426Z,73.70
2022-11-25T16:16:22.397Z,73.70
2022-11-25T16:19:08.046Z,73.80
2022-11-25T16:21:40.398Z,73.80
2022-11-25T16:24:22.251Z,73.70
2022-11-25T16:26:56.407Z,73.80
2022-11-25T16:29:40.883Z,73.90
2022-11-25T16:32:29.151Z,73.90
2022-11-25T16:35:00.654Z,74.00
2022-11-25T16:37:27.465Z,73.90
2022-11-25T16:39:54.298Z,73.90
2022-11-25T16:42:21.957Z,73.90
2022-11-25T16:44:52.438Z,74.00
2022-11-25T16:47:21.091Z,74.00
2022-11-25T16:49:48.353Z,74.10
2022-11-25T16:52:15.492Z,74.00
2022-11-25T16:54:42.356Z,74.00
2022-11-25T16:57:21.876Z,74.00
2022-11-25T16:59:54.384Z,74.00
2022-11-25T17:02:24.356Z,74.00
2022-11-25T17:04:51.433Z,73.90
2022-11-25T17:07:35.066Z,74.00
2022-11-25T17:10:02.691Z,74.10
2022-11-25T17:12:33.308Z,74.10
2022-11-25T17:15:01.315Z,74.00
2022-11-25T17:17:28.754Z,74.20
2022-11-25T17:19:55.759Z,74.20
2022-11-25T17:22:33.376Z,74.20
2022-11-25T17:25:02.996Z,74.30
2022-11-25T17:27:32.314Z,74.20
2022-11-25T17:30:04.537Z,74.10
2022-11-25T17:32:33.004Z,74.20
2022-11-25T17:35:00.656Z,74.10
2022-11-25T17:37:28.775Z,74.00
2022-11-25T17:39:55.741Z,74.00
2022-11-25T17:42:32.334Z,73.90
2022-11-25T17:45:00.435Z,74.00
2022-11-25T17:47:29.494Z,73.90
2022-11-25T17:49:57.792Z,73.90
2022-11-25T17:52:24.820Z,73.90
2022-11-25T17:54:51.810Z,73.70
2022-11-25T17:57:21.608Z,73.80
2022-11-25T17:59:49.044Z,73.80
2022-11-25T18:02:18.758Z,73.80
2022-11-25T18:04:46.378Z,73.90
2022-11-25T18:07:13.213Z,73.70
2022-11-25T18:09:40.254Z,73.80
2022-11-25T18:12:15.330Z,73.70
2022-11-25T18:14:42.982Z,74.00
2022-11-25T18:17:15.900Z,73.80
2022-11-25T18:19:42.793Z,73.80
2022-11-25T18:22:14.219Z,73.70
2022-11-25T18:24:41.520Z,74.60
2022-11-25T18:27:22.377Z,73.80
2022-11-25T18:29:49.665Z,73.90
2022-11-25T18:32:16.623Z,73.90
2022-11-25T18:34:43.504Z,73.90
2022-11-25T18:37:12.291Z,74.00
2022-11-25T18:39:39.443Z,74.00
2022-11-25T18:42:07.389Z,74.00
2022-11-25T18:44:42.199Z,74.00
2022-11-25T18:47:12.732Z,73.80
2022-11-25T18:49:39.807Z,73.60
2022-11-25T18:52:06.900Z,73.50
2022-11-25T18:54:33.714Z,73.40
2022-11-25T18:57:00.727Z,73.30
2022-11-25T18:59:34.495Z,73.40
2022-11-25T19:02:01.611Z,73.40
2022-11-25T19:04:28.613Z,73.30
2022-11-25T19:06:55.377Z,73.20
2022-11-25T19:09:22.167Z,73.30
2022-11-25T19:11:53.091Z,73.40
2022-11-25T19:14:37.802Z,73.70
2022-11-25T19:17:15.495Z,73.60
2022-11-25T19:19:45.232Z,73.60
2022-11-25T19:22:15.120Z,73.40
2022-11-25T19:24:42.702Z,73.80
2022-11-25T19:27:18.508Z,73.90
2022-11-25T19:29:46.227Z,74.20
2022-11-25T19:32:28.139Z,74.10
2022-11-25T19:35:01.335Z,74.10
2022-11-25T19:37:30.174Z,74.00
2022-11-25T19:39:57.337Z,73.90
2022-11-25T19:42:28.431Z,73.80
2022-11-25T19:44:55.277Z,73.80
2022-11-25T19:47:24.845Z,73.70
2022-11-25T19:49:54.619Z,73.90
2022-11-25T19:52:26.516Z,73.90
2022-11-25T19:54:53.380Z,74.00
2022-11-25T19:57:22.833Z,74.00
2022-11-25T19:59:50.183Z,74.00
2022-11-25T20:02:21.526Z,74.00
2022-11-25T20:04:51.072Z,74.00
2022-11-25T20:07:20.163Z,74.00
2022-11-25T20:09:51.473Z,74.00
2022-11-25T20:12:28.077Z,73.90
2022-11-25T20:14:54.910Z,73.70
2022-11-25T20:17:35.169Z,73.60
2022-11-25T20:20:12.058Z,73.40
2022-11-25T20:22:42.585Z,73.10
2022-11-25T20:25:12.749Z,73.20
2022-11-25T20:27:39.721Z,73.40
2022-11-25T20:30:29.600Z,73.70
2022-11-25T20:32:56.502Z,73.60
2022-11-25T20:35:25.864Z,73.50
2022-11-25T20:37:58.077Z,73.30
2022-11-25T20:40:45.313Z,73.00
2022-11-25T20:43:32.237Z,72.90
2022-11-25T20:46:01.254Z,73.10
2022-11-25T20:48:29.160Z,73.10
2022-11-25T20:50:59.949Z,73.20
2022-11-25T20:53:28.113Z,73.00
2022-11-25T20:55:54.975Z,73.10
2022-11-25T20:58:27.855Z,73.40
2022-11-25T21:00:57.669Z,73.80
2022-11-25T21:03:25.864Z,74.00
2022-11-25T21:05:54.830Z,74.00
2022-11-25T21:08:24.062Z,74.00
2022-11-25T21:10:53.836Z,74.10
2022-11-25T21:13:27.209Z,74.30
2022-11-25T21:15:54.555Z,74.30
2022-11-25T21:18:22.389Z,74.10
2022-11-25T21:20:51.677Z,74.20
2022-11-25T21:23:26.118Z,74.20
2022-11-25T21:25:53.507Z,74.10
2022-11-25T21:28:26.799Z,73.50
2022-11-25T21:30:53.977Z,73.60
2022-11-25T21:33:20.918Z,73.30
2022-11-25T21:35:50.620Z,73.10
2022-11-25T21:38:23.869Z,72.90
2022-11-25T21:40:58.615Z,73.10
2022-11-25T21:43:44.402Z,73.00
2022-11-25T21:46:18.077Z,73.10
2022-11-25T21:48:45.536Z,73.30
2022-11-25T21:51:14.260Z,73.20
2022-11-25T21:53:41.605Z,73.40
2022-11-25T21:56:28.795Z,73.40
2022-11-25T21:58:57.000Z,73.40
2022-11-25T22:01:24.596Z,73.40
2022-11-25T22:03:51.852Z,73.30
2022-11-25T22:06:30.094Z,73.30
2022-11-25T22:08:57.489Z,73.40
2022-11-25T22:11:37.169Z,73.10
2022-11-25T22:14:20.004Z,73.20
2022-11-25T22:16:48.049Z,73.20
2022-11-25T22:19:20.483Z,73.20
2022-11-25T22:21:47.481Z,73.30
2022-11-25T22:24:16.074Z,73.40
2022-11-25T22:26:44.245Z,73.40
2022-11-25T22:29:16.365Z,73.50
2022-11-25T22:31:43.860Z,73.50
2022-11-25T22:34:17.759Z,73.40
2022-11-25T22:36:44.905Z,73.50
2022-11-25T22:39:25.911Z,73.60
2022-11-25T22:41:59.116Z,73.70
2022-11-25T22:44:45.653Z,73.60
2022-11-25T22:47:41.008Z,73.40
2022-11-25T22:50:17.354Z,73.40
2022-11-25T22:52:45.282Z,73.40
2022-11-25T22:55:20.972Z,73.40
2022-11-25T22:57:49.424Z,73.50
2022-11-25T23:00:30.317Z,73.50
2022-11-25T23:02:59.655Z,73.60
2022-11-25T23:05:33.694Z,73.70
2022-11-25T23:08:13.177Z,73.70
2022-11-25T23:10:40.498Z,73.50
2022-11-25T23:13:08.502Z,73.40
2022-11-25T23:15:35.750Z,73.40
2022-11-25T23:18:06.616Z,73.50
2022-11-25T23:20:37.398Z,73.50
2022-11-25T23:23:14.614Z,73.60
2022-11-25T23:25:41.799Z,73.70
2022-11-25T23:28:08.694Z,73.60
2022-11-25T23:30:36.126Z,73.50
2022-11-25T23:33:06.551Z,73.40
2022-11-25T23:35:37.425Z,73.40
2022-11-25T23:38:08.837Z,73.30
2022-11-25T23:40:35.708Z,73.20
2022-11-25T23:43:03.085Z,73.20
2022-11-25T23:45:29.921Z,73.40
2022-11-25T23:47:57.248Z,73.30
2022-11-25T23:50:26.798Z,73.10
2022-11-25T23:53:05.858Z,72.60
2022-11-25T23:55:37.203Z,72.30
2022-11-25T23:58:13.832Z,72.30
